Time;durP1;ratioP1;P1;durP2;ratioP2;P2;SDS_P1;SDS_P2;PMS_P1;PMS_P2;Temp;Humidity;BMP_temperature;BMP_pressure;BME280_temperature;BME280_humidity;BME280_pressure;Samples;Min_cycle;Max_cycle;Signal;HPM_P1;HPM_P2
2021/10/30 00:00:33;;;;;;;9.27;4.30;;;5.70;98.00;;;;;;6247930;23;20004;-77
2021/10/30 00:02:59;;;;;;;8.93;3.95;;;5.80;98.00;;;;;;6248606;23;20004;-77
2021/10/30 00:05:24;;;;;;;7.50;3.78;;;6.00;98.00;;;;;;6248368;23;20020;-77
2021/10/30 00:07:50;;;;;;;7.55;3.70;;;6.00;98.00;;;;;;6248805;23;20015;-77
2021/10/30 00:10:16;;;;;;;8.82;3.85;;;5.80;98.00;;;;;;6248304;23;20003;-77
2021/10/30 00:12:42;;;;;;;6.57;3.65;;;5.80;98.00;;;;;;6220857;23;20042;-77
2021/10/30 00:15:09;;;;;;;7.50;2.92;;;5.70;98.00;;;;;;6248774;23;20012;-76
2021/10/30 00:17:38;;;;;;;9.10;3.05;;;5.70;98.00;;;;;;6248714;23;20014;-77
2021/10/30 00:20:04;;;;;;;6.18;3.00;;;5.80;98.00;;;;;;6248569;23;20008;-76
2021/10/30 00:22:31;;;;;;;6.25;3.00;;;5.80;98.00;;;;;;6248873;23;20000;-76
2021/10/30 00:24:57;;;;;;;6.78;3.85;;;5.90;98.00;;;;;;6221972;23;20023;-77
2021/10/30 00:27:22;;;;;;;5.55;3.10;;;6.00;98.00;;;;;;6246542;23;19997;-77
2021/10/30 00:29:48;;;;;;;8.38;3.80;;;6.00;98.00;;;;;;6248855;23;19992;-77
2021/10/30 00:32:14;;;;;;;9.18;3.38;;;6.00;98.00;;;;;;6247511;23;20060;-77
2021/10/30 00:34:40;;;;;;;6.93;3.35;;;6.00;98.00;;;;;;6221737;23;20089;-77
2021/10/30 00:37:05;;;;;;;7.90;3.30;;;6.00;98.00;;;;;;6221760;23;20250;-77
2021/10/30 00:39:31;;;;;;;9.68;2.95;;;6.00;98.00;;;;;;6248685;23;20004;-77
2021/10/30 00:41:57;;;;;;;7.18;3.10;;;6.10;97.60;;;;;;6246502;23;20009;-76
2021/10/30 00:44:23;;;;;;;7.38;3.50;;;6.00;97.60;;;;;;6221936;23;20062;-77
2021/10/30 00:46:51;;;;;;;8.45;3.20;;;6.00;97.70;;;;;;6247977;23;20373;-76
2021/10/30 00:49:18;;;;;;;8.18;3.67;;;6.00;98.00;;;;;;6248625;23;20039;-76
2021/10/30 00:51:47;;;;;;;8.18;3.60;;;6.00;98.00;;;;;;6248739;23;19993;-76
2021/10/30 00:54:14;;;;;;;6.97;2.92;;;6.20;97.70;;;;;;6221983;23;20080;-76
2021/10/30 00:56:42;;;;;;;7.35;3.10;;;6.30;97.00;;;;;;6246814;23;20005;-77
2021/10/30 00:59:12;;;;;;;5.68;2.28;;;6.30;96.60;;;;;;6248395;23;20004;-77
2021/10/30 01:01:40;;;;;;;8.23;3.17;;;6.30;96.00;;;;;;6221299;23;20269;-78
2021/10/30 01:04:06;;;;;;;5.07;2.58;;;6.30;95.10;;;;;;6221517;23;20034;-78
2021/10/30 01:06:34;;;;;;;5.75;2.70;;;6.40;94.50;;;;;;6247842;23;20439;-76
2021/10/30 01:09:00;;;;;;;6.07;2.95;;;6.60;94.20;;;;;;6248750;23;20049;-77
2021/10/30 01:11:26;;;;;;;7.85;3.03;;;6.70;94.00;;;;;;6220402;23;20368;-77
2021/10/30 01:13:54;;;;;;;6.50;2.63;;;7.00;92.40;;;;;;6222016;23;20008;-76
2021/10/30 01:16:23;;;;;;;5.85;2.78;;;7.20;91.30;;;;;;6247946;23;20062;-76
2021/10/30 01:18:48;;;;;;;4.95;2.70;;;7.30;91.20;;;;;;6248625;23;20005;-77
2021/10/30 01:21:30;;;;;;;4.90;2.63;;;7.40;90.60;;;;;;6248273;23;20032;-76
2021/10/30 01:23:56;;;;;;;4.43;2.20;;;7.40;90.10;;;;;;6223508;23;20419;-77
2021/10/30 01:26:23;;;;;;;3.63;1.90;;;7.30;89.40;;;;;;6246263;23;19996;-77
2021/10/30 01:28:49;;;;;;;5.32;2.20;;;7.20;89.10;;;;;;6248013;23;20000;-77
2021/10/30 01:31:15;;;;;;;5.75;2.58;;;7.10;90.30;;;;;;6248059;23;20027;-77
2021/10/30 01:33:42;;;;;;;4.72;2.35;;;7.00;90.30;;;;;;6247180;23;20000;-77
2021/10/30 01:36:10;;;;;;;4.90;2.30;;;7.00;90.00;;;;;;6222292;23;20269;-77
2021/10/30 01:38:36;;;;;;;5.60;2.30;;;7.00;90.50;;;;;;6223175;23;20008;-76
2021/10/30 01:41:02;;;;;;;4.93;1.88;;;6.70;91.70;;;;;;6221781;23;20320;-76
2021/10/30 01:43:28;;;;;;;3.08;1.42;;;6.50;92.40;;;;;;6249864;23;20011;-78
2021/10/30 01:45:54;;;;;;;4.80;2.08;;;6.30;93.00;;;;;;6249828;23;20035;-75
2021/10/30 01:48:27;;;;;;;5.45;2.80;;;6.20;93.40;;;;;;6249836;23;20007;-76
2021/10/30 01:50:53;;;;;;;6.93;3.03;;;6.00;94.20;;;;;;6249341;23;20062;-76
2021/10/30 01:53:19;;;;;;;6.38;3.03;;;5.90;94.90;;;;;;6249851;23;20031;-76
2021/10/30 01:55:46;;;;;;;6.47;3.15;;;5.80;95.50;;;;;;6221888;23;20039;-77
2021/10/30 01:58:12;;;;;;;7.00;3.70;;;5.70;96.20;;;;;;6249889;23;20339;-78
2021/10/30 02:00:42;;;;;;;7.43;3.53;;;5.70;96.60;;;;;;6249410;23;20039;-77
2021/10/30 02:03:08;;;;;;;9.88;3.40;;;5.60;96.80;;;;;;6222743;23;20365;-77
2021/10/30 02:05:34;;;;;;;6.78;3.50;;;5.50;97.40;;;;;;6249312;23;20038;-77
2021/10/30 02:08:00;;;;;;;6.50;3.72;;;5.30;97.70;;;;;;6249620;23;20360;-77
2021/10/30 02:10:26;;;;;;;8.25;4.40;;;5.20;98.00;;;;;;6248250;23;20000;-77
2021/10/30 02:12:52;;;;;;;7.72;4.07;;;5.10;98.00;;;;;;6249550;23;20023;-77
2021/10/30 02:15:18;;;;;;;9.07;4.30;;;5.10;98.00;;;;;;6249388;23;20000;-76
2021/10/30 02:17:43;;;;;;;10.32;5.15;;;5.40;98.00;;;;;;6249438;23;20388;-76
2021/10/30 02:20:10;;;;;;;11.00;5.18;;;5.60;98.00;;;;;;6249044;23;20003;-77
2021/10/30 02:22:37;;;;;;;11.20;4.93;;;5.80;98.00;;;;;;6222973;23;20387;-76
2021/10/30 02:25:07;;;;;;;8.90;4.93;;;6.00;98.00;;;;;;6223126;23;20003;-76
2021/10/30 02:27:33;;;;;;;6.45;3.47;;;5.90;98.00;;;;;;6221167;23;20031;-76
2021/10/30 02:29:59;;;;;;;5.32;2.60;;;5.70;97.50;;;;;;6248988;23;20003;-76
2021/10/30 02:32:24;;;;;;;8.50;5.00;;;5.50;97.20;;;;;;6222517;23;20008;-76
2021/10/30 02:34:50;;;;;;;11.52;6.28;;;5.40;97.70;;;;;;6249184;23;20000;-76
2021/10/30 02:37:16;;;;;;;10.63;5.60;;;5.70;98.00;;;;;;6248506;23;20004;-77
2021/10/30 02:39:41;;;;;;;11.30;5.60;;;6.00;98.00;;;;;;6249509;23;20308;-76
2021/10/30 02:42:07;;;;;;;11.45;6.18;;;6.30;98.00;;;;;;6221550;23;20012;-76
2021/10/30 02:44:33;;;;;;;10.82;5.72;;;6.50;97.70;;;;;;6248992;23;20011;-76
2021/10/30 02:46:59;;;;;;;10.50;5.88;;;6.70;97.00;;;;;;6248683;23;20001;-76
2021/10/30 02:49:25;;;;;;;7.07;3.80;;;6.80;96.50;;;;;;6222740;23;20382;-76
2021/10/30 02:51:50;;;;;;;6.88;3.58;;;6.80;95.30;;;;;;6249317;23;20008;-76
2021/10/30 02:54:16;;;;;;;10.35;4.57;;;6.70;94.70;;;;;;6249601;23;20011;-76
2021/10/30 02:56:41;;;;;;;9.60;5.10;;;6.50;95.00;;;;;;6221420;23;20269;-76
2021/10/30 02:59:07;;;;;;;10.10;5.55;;;6.20;96.20;;;;;;6222467;23;20004;-77
2021/10/30 03:01:33;;;;;;;11.57;5.32;;;5.80;97.40;;;;;;6248943;23;20408;-76
2021/10/30 03:03:58;;;;;;;10.45;5.97;;;5.60;98.00;;;;;;6248803;23;20084;-76
2021/10/30 03:06:26;;;;;;;10.75;5.45;;;5.30;98.00;;;;;;6222306;23;20016;-76
2021/10/30 03:08:52;;;;;;;12.40;6.10;;;5.10;98.00;;;;;;6249583;23;20027;-76
2021/10/30 03:11:18;;;;;;;12.15;6.10;;;4.80;98.00;;;;;;6247529;23;19996;-77
2021/10/30 03:13:44;;;;;;;9.73;5.68;;;4.70;98.00;;;;;;6222933;23;20024;-76
2021/10/30 03:16:10;;;;;;;10.45;5.35;;;4.70;98.00;;;;;;6248864;23;20000;-76
2021/10/30 03:18:36;;;;;;;12.00;5.82;;;4.80;98.00;;;;;;6222681;23;20035;-76
2021/10/30 03:21:02;;;;;;;10.23;5.25;;;5.00;98.00;;;;;;6249291;23;20000;-76
2021/10/30 03:23:28;;;;;;;9.50;5.30;;;5.30;98.00;;;;;;6249114;23;20012;-77
2021/10/30 03:25:53;;;;;;;9.20;5.20;;;5.70;98.00;;;;;;6247648;23;20000;-76
2021/10/30 03:28:19;;;;;;;9.25;5.20;;;5.80;98.00;;;;;;6222487;23;20003;-76
2021/10/30 03:30:45;;;;;;;10.50;5.88;;;5.90;98.00;;;;;;6221978;23;20008;-77
2021/10/30 03:33:11;;;;;;;14.45;6.10;;;6.10;98.00;;;;;;6222114;23;20270;-76
2021/10/30 03:35:37;;;;;;;12.52;6.00;;;6.10;98.00;;;;;;6248824;23;20003;-76
2021/10/30 03:38:03;;;;;;;11.43;5.32;;;6.10;98.00;;;;;;6249338;23;20000;-77
2021/10/30 03:40:29;;;;;;;9.68;4.85;;;6.10;98.00;;;;;;6247458;23;20087;-75
2021/10/30 03:42:54;;;;;;;8.13;3.90;;;5.90;98.00;;;;;;6222468;23;20010;-77
2021/10/30 03:45:20;;;;;;;6.70;3.80;;;5.80;98.00;;;;;;6249050;23;20007;-76
2021/10/30 03:47:46;;;;;;;7.53;3.50;;;5.60;98.00;;;;;;6248547;23;20006;-77
2021/10/30 03:50:11;;;;;;;6.32;3.72;;;5.40;98.00;;;;;;6248956;23;20038;-76
2021/10/30 03:52:37;;;;;;;7.03;3.53;;;5.30;98.00;;;;;;6222018;23;20000;-77
2021/10/30 03:55:04;;;;;;;8.05;3.97;;;5.20;98.00;;;;;;6249149;23;20006;-77
2021/10/30 03:57:30;;;;;;;10.02;4.60;;;5.20;98.00;;;;;;6246860;23;20243;-76
2021/10/30 03:59:56;;;;;;;10.77;5.03;;;5.30;98.00;;;;;;6248716;23;20012;-77
2021/10/30 04:02:22;;;;;;;8.98;4.38;;;5.60;98.00;;;;;;6247855;23;20027;-77
2021/10/30 04:04:48;;;;;;;7.88;4.00;;;5.90;98.00;;;;;;6248773;23;20007;-79
2021/10/30 04:07:13;;;;;;;8.23;3.95;;;6.00;97.70;;;;;;6248436;23;20012;-76
2021/10/30 04:09:39;;;;;;;8.98;3.90;;;6.20;97.20;;;;;;6248657;23;20000;-77
2021/10/30 04:12:05;;;;;;;9.07;4.38;;;6.30;96.80;;;;;;6220238;23;20266;-76
2021/10/30 04:14:32;;;;;;;9.57;4.25;;;6.30;96.50;;;;;;6248550;23;20016;-76
2021/10/30 04:16:57;;;;;;;9.75;4.35;;;6.40;96.20;;;;;;6247307;23;19996;-76
2021/10/30 04:19:23;;;;;;;9.43;4.40;;;6.40;95.70;;;;;;6248757;23;20011;-77
2021/10/30 04:21:49;;;;;;;10.60;4.63;;;6.40;95.80;;;;;;6248332;23;20012;-78
2021/10/30 04:24:14;;;;;;;8.20;4.28;;;6.40;95.70;;;;;;6248254;23;20004;-77
2021/10/30 04:26:40;;;;;;;9.48;4.63;;;6.40;95.30;;;;;;6247074;23;20362;-76
2021/10/30 04:29:06;;;;;;;8.52;4.55;;;6.50;95.30;;;;;;6248150;23;20099;-77
2021/10/30 04:31:32;;;;;;;12.77;5.18;;;6.50;95.50;;;;;;6248112;23;19997;-76
2021/10/30 04:34:01;;;;;;;12.88;5.68;;;7.00;94.00;;;;;;6248493;23;20075;-78
2021/10/30 04:36:29;;;;;;;10.77;5.55;;;7.60;92.70;;;;;;6248029;23;20004;-77
2021/10/30 04:38:55;;;;;;;15.30;5.55;;;7.90;91.80;;;;;;6248817;23;20008;-76
2021/10/30 04:41:21;;;;;;;13.80;6.55;;;8.30;91.30;;;;;;6220498;23;20009;-76
2021/10/30 04:43:50;;;;;;;13.23;6.00;;;8.40;91.30;;;;;;6248653;23;20007;-76
2021/10/30 04:46:18;;;;;;;15.98;7.00;;;8.40;91.40;;;;;;6247964;23;20451;-76
2021/10/30 04:48:44;;;;;;;14.13;6.97;;;8.30;92.00;;;;;;6247905;23;19996;-78
2021/10/30 04:51:11;;;;;;;14.32;8.30;;;8.20;91.70;;;;;;6247231;23;19996;-77
2021/10/30 04:53:40;;;;;;;15.23;7.07;;;7.80;92.00;;;;;;6247364;23;20000;-77
2021/10/30 04:56:06;;;;;;;13.68;6.72;;;7.30;91.90;;;;;;6220506;23;20008;-78
2021/10/30 04:58:33;;;;;;;13.63;6.20;;;7.00;93.20;;;;;;6221868;23;20316;-77
2021/10/30 05:01:00;;;;;;;12.60;5.72;;;7.00;93.50;;;;;;6246680;23;20087;-75
2021/10/30 05:03:26;;;;;;;10.27;5.47;;;7.00;93.60;;;;;;6220091;23;20004;-78
2021/10/30 05:05:52;;;;;;;10.15;5.25;;;7.00;93.80;;;;;;6247990;23;20023;-76
2021/10/30 05:08:18;;;;;;;10.27;5.68;;;7.00;93.40;;;;;;6248583;23;20004;-76
2021/10/30 05:10:44;;;;;;;11.23;6.07;;;7.20;93.20;;;;;;6247781;23;20000;-77
2021/10/30 05:13:10;;;;;;;15.00;7.80;;;7.20;93.30;;;;;;6250334;23;20008;-76
2021/10/30 05:15:35;;;;;;;19.42;9.57;;;7.00;94.20;;;;;;6249941;23;19997;-77
2021/10/30 05:18:01;;;;;;;15.82;8.52;;;6.60;95.40;;;;;;6249620;23;20003;-76
2021/10/30 05:20:28;;;;;;;16.35;8.50;;;6.40;96.20;;;;;;6249542;23;20006;-76
2021/10/30 05:22:53;;;;;;;13.35;7.90;;;6.20;96.70;;;;;;6249981;23;20309;-76
2021/10/30 05:25:19;;;;;;;15.90;7.75;;;6.30;96.70;;;;;;6248277;23;20012;-76
2021/10/30 05:27:46;;;;;;;15.05;7.05;;;6.60;95.70;;;;;;6223995;23;20023;-76
2021/10/30 05:30:12;;;;;;;15.48;6.80;;;7.20;93.50;;;;;;6223103;23;20317;-77
2021/10/30 05:32:37;;;;;;;16.75;7.68;;;7.80;91.10;;;;;;6249011;23;20000;-77
2021/10/30 05:35:03;;;;;;;14.18;6.90;;;8.30;88.80;;;;;;6250373;23;20266;-76
2021/10/30 05:37:29;;;;;;;16.08;7.15;;;8.60;88.10;;;;;;6223233;23;20054;-76
2021/10/30 05:39:55;;;;;;;16.60;7.35;;;8.70;87.40;;;;;;6250263;23;20048;-76
2021/10/30 05:42:20;;;;;;;17.00;7.78;;;8.90;86.90;;;;;;6248174;23;20011;-75
2021/10/30 05:44:49;;;;;;;14.20;6.90;;;8.80;86.80;;;;;;6249790;23;20007;-77
2021/10/30 05:47:15;;;;;;;18.40;7.10;;;8.90;86.00;;;;;;6223149;23;20008;-76
2021/10/30 05:49:43;;;;;;;16.23;7.53;;;8.90;86.10;;;;;;6249684;23;20000;-77
2021/10/30 05:52:09;;;;;;;15.95;7.00;;;8.80;86.70;;;;;;6249752;23;20000;-76
2021/10/30 05:54:35;;;;;;;14.35;6.57;;;8.80;86.20;;;;;;6250001;23;20031;-76
2021/10/30 05:57:01;;;;;;;11.40;6.00;;;8.80;86.20;;;;;;6220898;23;20136;-76
2021/10/30 05:59:27;;;;;;;13.68;6.95;;;9.10;84.90;;;;;;6248427;23;20390;-77
2021/10/30 06:01:53;;;;;;;12.38;5.93;;;9.10;85.10;;;;;;6248835;23;20273;-77
2021/10/30 06:04:19;;;;;;;11.25;5.43;;;9.20;83.50;;;;;;6250309;23;19997;-76
2021/10/30 06:06:45;;;;;;;14.00;6.13;;;9.50;82.50;;;;;;6249680;23;20019;-77
2021/10/30 06:09:11;;;;;;;14.32;6.38;;;9.50;82.50;;;;;;6222971;23;20011;-76
2021/10/30 06:11:37;;;;;;;11.07;5.90;;;9.40;82.70;;;;;;6249131;23;20035;-76
2021/10/30 06:14:06;;;;;;;13.48;6.70;;;9.40;82.30;;;;;;6249674;23;20102;-76
2021/10/30 06:16:34;;;;;;;14.10;6.25;;;9.50;82.00;;;;;;6249067;23;20008;-77
2021/10/30 06:19:00;;;;;;;12.02;6.03;;;9.60;81.60;;;;;;6249478;23;20110;-77
2021/10/30 06:21:27;;;;;;;11.90;5.90;;;9.80;80.60;;;;;;6222818;23;20027;-76
2021/10/30 06:23:58;;;;;;;18.33;8.55;;;9.90;80.20;;;;;;6222539;23;20019;-76
2021/10/30 06:26:25;;;;;;;16.05;7.00;;;10.00;79.90;;;;;;6221498;23;20000;-76
2021/10/30 06:28:51;;;;;;;13.82;7.10;;;9.90;80.20;;;;;;6249494;23;20024;-76
2021/10/30 06:31:17;;;;;;;15.73;6.18;;;9.90;80.20;;;;;;6222383;23;20024;-76
2021/10/30 06:33:43;;;;;;;18.05;8.75;;;10.00;79.40;;;;;;6249092;23;20098;-76
2021/10/30 06:36:09;;;;;;;13.95;6.53;;;10.10;79.50;;;;;;6222572;23;20004;-76
2021/10/30 06:38:35;;;;;;;15.07;6.45;;;10.00;79.70;;;;;;6249171;23;20078;-76
2021/10/30 06:41:02;;;;;;;16.02;6.90;;;9.90;80.20;;;;;;6247902;23;20111;-76
2021/10/30 06:43:29;;;;;;;14.57;6.72;;;9.90;80.20;;;;;;6249094;23;20012;-76
2021/10/30 06:45:55;;;;;;;13.25;6.82;;;9.80;80.40;;;;;;6249567;23;20012;-76
2021/10/30 06:48:21;;;;;;;15.77;7.40;;;9.70;81.10;;;;;;6222674;23;20004;-77
2021/10/30 06:50:47;;;;;;;12.85;6.93;;;9.50;82.30;;;;;;6249121;23;20001;-77
2021/10/30 06:53:12;;;;;;;15.32;7.32;;;9.30;83.20;;;;;;6249609;23;19996;-76
2021/10/30 06:55:38;;;;;;;16.17;7.55;;;9.20;83.20;;;;;;6247989;23;20000;-77
2021/10/30 06:58:05;;;;;;;17.48;7.53;;;9.40;82.80;;;;;;6249362;23;20143;-75
2021/10/30 07:00:30;;;;;;;14.15;6.38;;;9.60;82.20;;;;;;6248799;23;20000;-76
2021/10/30 07:02:56;;;;;;;16.75;6.38;;;9.80;81.00;;;;;;6249350;23;20054;-77
2021/10/30 07:05:22;;;;;;;12.15;6.88;;;10.00;80.40;;;;;;6217282;23;20074;-77
2021/10/30 07:07:48;;;;;;;12.45;5.95;;;10.10;80.30;;;;;;6217937;23;20035;-76
2021/10/30 07:10:14;;;;;;;12.68;6.38;;;10.30;79.10;;;;;;6216481;23;20243;-76
2021/10/30 07:12:39;;;;;;;12.98;5.97;;;10.50;78.50;;;;;;6218277;23;20032;-76
2021/10/30 07:15:07;;;;;;;10.68;5.40;;;10.80;77.40;;;;;;6218712;23;20359;-77
2021/10/30 07:17:36;;;;;;;11.73;5.25;;;11.20;75.30;;;;;;6218357;23;20266;-76
2021/10/30 07:20:03;;;;;;;11.55;6.25;;;11.60;74.00;;;;;;6217690;23;20000;-76
2021/10/30 07:22:29;;;;;;;12.48;5.55;;;11.80;74.30;;;;;;6218392;23;20005;-76
2021/10/30 07:24:55;;;;;;;10.80;5.30;;;11.90;74.10;;;;;;6218250;23;20302;-77
2021/10/30 07:27:20;;;;;;;10.40;5.60;;;11.90;75.20;;;;;;6215315;23;20013;-77
2021/10/30 07:29:48;;;;;;;11.52;5.20;;;12.00;75.00;;;;;;6216980;23;20005;-77
2021/10/30 07:32:15;;;;;;;10.52;4.90;;;12.00;74.70;;;;;;6218239;23;20062;-76
2021/10/30 07:34:40;;;;;;;11.63;4.90;;;12.00;74.60;;;;;;6216648;23;20142;-76
2021/10/30 07:37:06;;;;;;;8.25;4.05;;;11.90;74.80;;;;;;6216898;23;20040;-76
2021/10/30 07:39:32;;;;;;;8.02;4.40;;;11.90;75.30;;;;;;6218220;23;20000;-76
2021/10/30 07:41:58;;;;;;;11.32;4.47;;;11.90;76.30;;;;;;6215698;23;20428;-76
2021/10/30 07:44:23;;;;;;;8.68;4.50;;;11.90;74.20;;;;;;6218576;23;20001;-77
2021/10/30 07:46:49;;;;;;;11.00;4.55;;;12.00;73.60;;;;;;6217151;23;20004;-77
2021/10/30 07:49:15;;;;;;;11.60;4.63;;;12.20;73.30;;;;;;6218552;23;20007;-77
2021/10/30 07:51:40;;;;;;;9.80;4.80;;;12.40;72.40;;;;;;6217903;23;20000;-77
2021/10/30 07:54:06;;;;;;;9.73;4.55;;;12.70;71.80;;;;;;6217164;23;20031;-78
2021/10/30 07:56:32;;;;;;;10.50;4.95;;;13.00;70.00;;;;;;6216795;23;20086;-77
2021/10/30 07:58:57;;;;;;;11.68;5.35;;;13.20;69.40;;;;;;6218102;23;20051;-77
2021/10/30 08:01:23;;;;;;;8.27;3.70;;;13.20;69.70;;;;;;6218315;23;20004;-77
2021/10/30 08:03:49;;;;;;;9.13;4.00;;;13.70;69.10;;;;;;6217661;23;20005;-77
2021/10/30 08:06:15;;;;;;;10.30;4.50;;;14.10;67.20;;;;;;6235928;23;20320;-77
2021/10/30 08:08:41;;;;;;;10.40;4.60;;;14.00;67.30;;;;;;6221977;23;20000;-77
2021/10/30 08:11:07;;;;;;;10.73;4.45;;;13.80;67.50;;;;;;6247541;23;20081;-77
2021/10/30 08:13:32;;;;;;;7.22;3.80;;;13.70;67.70;;;;;;6248494;23;20097;-78
2021/10/30 08:15:58;;;;;;;9.00;3.70;;;13.60;68.90;;;;;;6248613;23;20008;-78
2021/10/30 08:18:24;;;;;;;8.82;4.05;;;13.70;69.10;;;;;;6221758;23;20321;-78
2021/10/30 08:20:50;;;;;;;8.40;3.45;;;13.60;68.30;;;;;;6248626;23;20004;-77
2021/10/30 08:23:16;;;;;;;7.47;3.72;;;13.70;69.20;;;;;;6248212;23;20010;-77
2021/10/30 08:25:41;;;;;;;7.75;3.40;;;13.70;68.10;;;;;;6220704;23;20004;-77
2021/10/30 08:28:07;;;;;;;9.40;3.78;;;13.80;69.10;;;;;;6247863;23;20258;-76
2021/10/30 08:30:34;;;;;;;9.70;4.30;;;13.90;67.80;;;;;;6248027;23;20068;-77
2021/10/30 08:32:59;;;;;;;10.50;4.20;;;13.90;67.50;;;;;;6249000;23;20285;-77
2021/10/30 08:35:25;;;;;;;7.28;3.50;;;14.00;67.30;;;;;;6248544;23;20008;-76
2021/10/30 08:37:53;;;;;;;11.32;6.85;;;14.20;67.80;;;;;;6248019;23;20062;-76
2021/10/30 08:40:18;;;;;;;18.10;9.05;;;13.80;71.60;;;;;;6246902;23;20003;-77
2021/10/30 08:42:47;;;;;;;13.82;7.13;;;13.00;74.10;;;;;;6248322;23;20004;-77
2021/10/30 08:45:14;;;;;;;15.73;10.35;;;12.10;76.30;;;;;;6249983;23;20004;-77
2021/10/30 08:47:41;;;;;;;13.10;8.55;;;11.70;77.80;;;;;;6250581;23;20027;-76
2021/10/30 08:50:08;;;;;;;12.57;7.38;;;11.60;79.00;;;;;;6249721;23;20306;-77
2021/10/30 08:52:34;;;;;;;12.98;6.47;;;11.70;79.00;;;;;;6249292;23;20001;-77
2021/10/30 08:55:05;;;;;;;11.73;6.70;;;11.90;78.90;;;;;;6249983;23;20243;-77
2021/10/30 08:57:31;;;;;;;17.98;7.13;;;11.80;79.90;;;;;;6222553;23;20008;-77
2021/10/30 09:00:17;;;;;;;9.80;5.25;;;11.80;81.30;;;;;;6223421;23;20057;-77
2021/10/30 09:02:43;;;;;;;9.40;3.92;;;11.90;78.10;;;;;;6250249;23;20004;-77
2021/10/30 09:05:15;;;;;;;8.77;4.38;;;12.30;75.70;;;;;;6250615;23;20382;-77
2021/10/30 09:07:42;;;;;;;7.38;3.75;;;12.70;73.50;;;;;;6249950;23;20123;-77
2021/10/30 09:10:15;;;;;;;7.82;3.78;;;13.10;72.90;;;;;;6223739;23;20357;-77
2021/10/30 09:12:54;;;;;;;13.23;6.47;;;13.30;73.30;;;;;;6250323;23;20396;-77
2021/10/30 09:15:38;;;;;;;10.00;5.10;;;13.10;75.60;;;;;;6250665;23;20000;-77
2021/10/30 09:18:21;;;;;;;12.32;5.82;;;12.60;75.00;;;;;;6224177;23;20008;-77
2021/10/30 09:20:48;;;;;;;12.80;7.47;;;12.10;76.00;;;;;;6223788;23;20015;-77
2021/10/30 09:23:23;;;;;;;16.73;8.27;;;11.50;79.20;;;;;;6250135;23;19996;-77
2021/10/30 09:25:58;;;;;;;14.38;7.97;;;11.20;80.70;;;;;;6248980;23;20247;-77
2021/10/30 09:28:25;;;;;;;21.17;11.30;;;11.00;82.10;;;;;;6223903;23;20054;-77
2021/10/30 09:31:04;;;;;;;21.45;11.50;;;10.80;82.00;;;;;;6250172;23;19997;-76
2021/10/30 09:33:32;;;;;;;19.88;9.35;;;10.40;83.90;;;;;;6249897;23;20008;-77
2021/10/30 09:36:08;;;;;;;17.98;9.93;;;10.10;85.10;;;;;;6249879;23;20239;-77
2021/10/30 09:38:36;;;;;;;25.02;11.30;;;9.70;86.40;;;;;;6223023;23;20313;-77
2021/10/30 09:41:25;;;;;;;25.10;12.50;;;9.50;88.20;;;;;;6248721;23;20007;-77
2021/10/30 09:44:06;;;;;;;18.48;10.88;;;9.40;89.10;;;;;;6204070;23;20008;-77
2021/10/30 09:46:51;;;;;;;20.83;10.57;;;9.30;89.20;;;;;;6248654;23;20385;-77
2021/10/30 09:49:24;;;;;;;18.48;10.48;;;9.40;89.30;;;;;;6251866;23;20132;-77
2021/10/30 09:51:52;;;;;;;17.85;10.73;;;9.40;89.20;;;;;;6249634;23;19996;-77
2021/10/30 09:54:36;;;;;;;19.70;10.25;;;9.40;89.60;;;;;;6223152;23;20011;-77
2021/10/30 09:57:06;;;;;;;24.70;14.25;;;9.40;88.90;;;;;;6247697;23;20054;-77
2021/10/30 09:59:34;;;;;;;14.52;8.18;;;9.40;88.60;;;;;;6249866;23;20376;-76
2021/10/30 10:02:00;;;;;;;13.23;8.38;;;9.30;88.50;;;;;;6249461;23;20050;-76
2021/10/30 10:04:27;;;;;;;23.88;13.77;;;9.20;88.80;;;;;;6222381;23;20004;-76
2021/10/30 10:06:55;;;;;;;16.02;8.57;;;9.10;88.80;;;;;;6249656;23;20012;-77
2021/10/30 10:09:21;;;;;;;12.05;6.85;;;9.10;89.50;;;;;;6223384;23;20075;-76
2021/10/30 10:11:48;;;;;;;11.57;6.60;;;9.00;89.60;;;;;;6248301;23;20001;-77
2021/10/30 10:14:19;;;;;;;14.80;7.35;;;9.10;89.30;;;;;;6249581;23;20004;-77
2021/10/30 10:16:52;;;;;;;14.05;7.30;;;9.10;89.40;;;;;;6248770;23;20262;-77
2021/10/30 10:19:19;;;;;;;12.52;7.82;;;9.20;90.40;;;;;;6221863;23;20008;-77
2021/10/30 10:21:47;;;;;;;13.63;7.32;;;9.40;89.90;;;;;;6223731;23;20372;-77
2021/10/30 10:24:18;;;;;;;14.30;6.90;;;9.50;89.50;;;;;;6222861;23;20004;-78
2021/10/30 10:26:52;;;;;;;12.98;6.75;;;9.50;88.50;;;;;;6247783;23;20004;-77
2021/10/30 10:29:32;;;;;;;12.35;6.80;;;9.50;89.70;;;;;;6249781;23;20006;-76
2021/10/30 10:31:59;;;;;;;12.75;6.25;;;9.50;90.20;;;;;;6249325;23;20007;-76
2021/10/30 10:34:30;;;;;;;11.18;6.22;;;9.60;89.10;;;;;;6248875;23;20298;-76
2021/10/30 10:37:11;;;;;;;11.60;6.25;;;9.70;89.20;;;;;;6249739;23;20034;-76
2021/10/30 10:39:47;;;;;;;11.95;6.20;;;9.90;89.60;;;;;;6249180;23;20004;-78
2021/10/30 10:42:36;;;;;;;12.38;6.70;;;10.00;88.80;;;;;;6247689;23;20370;-77
2021/10/30 10:45:05;;;;;;;10.82;6.93;;;10.00;89.30;;;;;;6248132;23;20011;-77
2021/10/30 10:47:39;;;;;;;12.43;7.50;;;10.00;88.90;;;;;;6249025;23;19997;-77
2021/10/30 10:50:11;;;;;;;13.27;7.85;;;9.90;89.00;;;;;;6222128;23;20000;-78
2021/10/30 10:52:59;;;;;;;13.77;7.30;;;9.80;89.40;;;;;;6249214;23;20000;-76
2021/10/30 10:55:25;;;;;;;14.35;7.88;;;9.90;89.90;;;;;;6221189;23;20085;-77
2021/10/30 10:57:57;;;;;;;13.07;6.68;;;10.00;90.30;;;;;;6248654;23;20059;-77
2021/10/30 11:00:24;;;;;;;14.55;8.07;;;10.20;89.00;;;;;;6247673;23;20004;-76
2021/10/30 11:02:54;;;;;;;12.45;6.80;;;10.30;87.90;;;;;;6248330;23;20004;-77
2021/10/30 11:05:30;;;;;;;19.30;11.55;;;10.30;87.10;;;;;;6248284;23;20018;-77
2021/10/30 11:08:26;;;;;;;23.40;12.45;;;10.40;87.40;;;;;;6221437;23;19996;-77
2021/10/30 11:11:10;;;;;;;14.82;7.68;;;10.50;87.70;;;;;;6247363;23;20023;-77
2021/10/30 11:13:36;;;;;;;;;;;10.40;88.20;;;;;;6223015;23;20035;-76
2021/10/30 11:16:03;;;;;;;13.85;6.40;;;10.40;87.40;;;;;;6222750;23;20150;-77
2021/10/30 11:18:35;;;;;;;11.77;5.90;;;10.50;88.70;;;;;;6248193;23;20279;-77
2021/10/30 11:21:22;;;;;;;13.00;6.38;;;10.60;87.40;;;;;;6248067;23;20010;-76
2021/10/30 11:23:50;;;;;;;9.93;5.80;;;10.50;88.40;;;;;;6248234;23;20273;-76
2021/10/30 11:26:21;;;;;;;11.30;6.70;;;10.60;88.80;;;;;;6247000;23;20243;-76
2021/10/30 11:28:47;;;;;;;11.93;6.45;;;10.60;89.10;;;;;;6222704;23;20031;-77
2021/10/30 11:31:18;;;;;;;11.23;5.93;;;10.60;88.70;;;;;;6223236;23;20055;-78
2021/10/30 11:33:44;;;;;;;11.15;5.72;;;10.70;88.40;;;;;;6248613;23;20304;-76
2021/10/30 11:36:13;;;;;;;11.43;5.80;;;10.70;86.90;;;;;;6249669;23;20034;-77
2021/10/30 11:38:39;;;;;;;17.70;9.40;;;10.80;86.40;;;;;;6248657;23;20030;-77
2021/10/30 11:41:10;;;;;;;13.25;7.10;;;10.70;86.80;;;;;;6219938;23;20087;-77
2021/10/30 11:43:37;;;;;;;14.52;7.55;;;10.60;86.30;;;;;;6248429;23;20012;-78
2021/10/30 11:46:06;;;;;;;14.98;8.23;;;10.50;88.10;;;;;;6247670;23;20265;-77
2021/10/30 11:48:40;;;;;;;18.00;9.23;;;10.50;88.30;;;;;;6222006;23;20054;-77
2021/10/30 11:51:07;;;;;;;18.70;8.05;;;10.20;88.60;;;;;;6248418;23;20004;-77
2021/10/30 11:53:34;;;;;;;18.23;8.88;;;9.90;89.90;;;;;;6221291;23;20005;-78
2021/10/30 11:56:07;;;;;;;23.20;9.57;;;9.60;92.40;;;;;;6219936;23;20055;-79
2021/10/30 11:58:46;;;;;;;18.17;10.23;;;9.40;95.60;;;;;;6248402;23;20059;-78
2021/10/30 12:01:25;;;;;;;19.90;10.55;;;8.90;97.30;;;;;;6248181;23;20004;-79
2021/10/30 12:03:57;;;;;;;16.83;9.77;;;8.50;98.00;;;;;;6222106;23;20038;-79
2021/10/30 12:06:25;;;;;;;16.92;10.15;;;8.40;98.00;;;;;;6248009;23;20034;-78
2021/10/30 12:08:51;;;;;;;18.45;8.80;;;8.30;98.00;;;;;;6248080;23;20004;-78
2021/10/30 12:11:20;;;;;;;18.63;9.18;;;8.30;98.00;;;;;;6247220;23;20071;-78
2021/10/30 12:13:46;;;;;;;17.45;9.80;;;8.30;97.90;;;;;;6222303;23;20015;-77
2021/10/30 12:16:13;;;;;;;18.50;9.73;;;8.30;97.80;;;;;;6221742;23;20058;-78
2021/10/30 12:18:39;;;;;;;16.48;8.48;;;8.30;97.90;;;;;;6221916;23;20400;-77
2021/10/30 12:21:11;;;;;;;15.52;8.65;;;8.40;97.80;;;;;;6222086;23;20004;-77
2021/10/30 12:24:15;;;;;;;17.88;9.00;;;8.50;97.40;;;;;;6248293;23;20381;-77
2021/10/30 12:27:07;;;;;;;18.00;10.48;;;8.80;96.90;;;;;;6071919;23;20399;-77
2021/10/30 12:29:45;;;;;;;16.05;8.32;;;8.90;96.60;;;;;;6242582;23;20079;-77
2021/10/30 12:32:14;;;;;;;17.30;8.10;;;9.00;96.30;;;;;;6222229;23;20278;-77
2021/10/30 12:34:57;;;;;;;13.38;8.18;;;9.00;96.50;;;;;;6221989;23;19996;-78
2021/10/30 12:37:29;;;;;;;16.65;8.07;;;9.10;95.90;;;;;;6221816;23;20008;-76
2021/10/30 12:39:57;;;;;;;17.92;8.13;;;9.20;96.10;;;;;;6248968;23;20008;-77
2021/10/30 12:42:23;;;;;;;12.00;7.32;;;9.30;96.00;;;;;;6245991;23;20435;-77
2021/10/30 12:44:53;;;;;;;19.17;7.45;;;9.30;96.30;;;;;;6248632;23;20004;-77
2021/10/30 12:47:21;;;;;;;13.25;6.65;;;9.30;96.10;;;;;;6249165;23;20067;-77
2021/10/30 12:49:57;;;;;;;13.38;8.18;;;9.30;95.90;;;;;;6248904;23;19997;-77
2021/10/30 12:52:37;;;;;;;14.80;7.95;;;9.30;95.60;;;;;;6249071;23;20011;-78